createdAt,value
2023-08-20T00:00:54.628Z,222951.00
2023-08-20T00:06:56.942Z,222891.00
2023-08-20T00:12:59.352Z,222848.00
2023-08-20T00:19:01.519Z,222821.00
2023-08-20T00:25:05.565Z,222789.00
2023-08-20T00:31:07.601Z,222767.00
2023-08-20T00:37:09.733Z,222707.00
2023-08-20T00:43:12.974Z,222699.00
2023-08-20T00:49:15.671Z,222664.00
2023-08-20T00:55:17.945Z,222662.00
2023-08-20T01:01:20.570Z,222664.00
2023-08-20T01:07:28.646Z,222656.00
2023-08-20T01:13:30.977Z,222624.00
2023-08-20T01:19:33.443Z,222553.00
2023-08-20T01:25:48.739Z,222492.00
2023-08-20T01:31:51.445Z,222426.00
2023-08-20T01:37:55.181Z,222388.00
2023-08-20T01:43:57.439Z,222351.00
2023-08-20T01:50:00.139Z,222308.00
2023-08-20T01:56:02.231Z,222242.00
2023-08-20T02:02:05.886Z,222191.00
2023-08-20T02:08:08.116Z,222159.00
2023-08-20T02:14:10.209Z,222129.00
2023-08-20T02:20:12.913Z,222115.00
2023-08-20T02:26:16.486Z,222095.00
2023-08-20T02:32:18.704Z,222258.00
2023-08-20T02:38:20.890Z,222410.00
2023-08-20T02:44:23.378Z,222678.00
2023-08-20T02:50:25.394Z,222875.00
2023-08-20T02:56:27.493Z,223108.00
2023-08-20T03:02:29.666Z,223388.00
2023-08-20T03:08:32.461Z,223868.00
2023-08-20T03:14:34.653Z,224376.00
2023-08-20T03:20:36.892Z,224887.00
2023-08-20T03:26:39.188Z,225022.00
2023-08-20T03:32:41.762Z,224992.00
2023-08-20T03:38:44.344Z,225043.00
2023-08-20T03:44:46.562Z,225067.00
2023-08-20T03:50:48.790Z,225113.00
2023-08-20T03:56:52.029Z,225239.00
2023-08-20T04:02:54.186Z,225360.00
2023-08-20T04:08:56.481Z,225489.00
2023-08-20T04:14:58.524Z,225618.00
2023-08-20T04:21:01.176Z,225768.00
2023-08-20T04:27:03.497Z,225953.00
2023-08-20T04:33:06.831Z,226111.00
2023-08-20T04:39:09.384Z,226271.00
2023-08-20T04:45:14.722Z,226438.00
2023-08-20T04:51:17.036Z,226614.00
2023-08-20T04:57:19.396Z,226819.00
2023-08-20T05:03:22.507Z,227148.00
2023-08-20T05:09:25.171Z,227384.00
2023-08-20T05:15:27.200Z,227623.00
2023-08-20T05:21:29.354Z,228354.00
2023-08-20T05:27:31.855Z,230279.00
2023-08-20T05:33:34.506Z,229628.00
2023-08-20T05:39:44.446Z,230279.00
2023-08-20T05:45:47.075Z,231026.00
2023-08-20T05:51:55.027Z,231452.00
2023-08-20T05:57:57.486Z,231835.00
2023-08-20T06:04:00.204Z,232294.00
2023-08-20T06:10:02.605Z,232746.00
2023-08-20T06:16:05.773Z,233332.00
2023-08-20T06:22:07.902Z,233292.00
2023-08-20T06:28:10.946Z,233782.00
2023-08-20T06:34:13.438Z,233455.00
2023-08-20T06:40:15.604Z,233984.00
2023-08-20T06:46:17.872Z,234252.00
2023-08-20T06:52:19.925Z,234115.00
2023-08-20T06:58:22.134Z,234194.00
2023-08-20T07:04:24.304Z,234705.00
2023-08-20T07:10:26.556Z,234763.00
2023-08-20T07:16:28.662Z,235068.00
2023-08-20T07:22:31.118Z,235109.00
2023-08-20T07:28:52.091Z,234632.00
2023-08-20T07:34:54.159Z,235151.00
2023-08-20T07:40:56.340Z,235780.00
2023-08-20T07:46:58.422Z,235837.00
2023-08-20T07:53:00.593Z,235876.00
2023-08-20T07:59:02.849Z,235175.00
2023-08-20T08:05:05.638Z,235494.00
2023-08-20T08:11:07.910Z,235647.00
2023-08-20T08:17:10.322Z,235526.00
2023-08-20T08:23:12.596Z,235780.00
2023-08-20T08:29:15.135Z,235209.00
2023-08-20T08:35:18.099Z,235143.00
2023-08-20T08:41:22.557Z,235748.00
2023-08-20T08:47:25.221Z,235664.00
2023-08-20T08:53:27.782Z,235502.00
2023-08-20T08:59:29.964Z,236075.00
2023-08-20T09:05:32.093Z,235900.00
2023-08-20T09:11:37.717Z,235274.00
2023-08-20T09:17:40.647Z,235355.00
2023-08-20T09:23:46.768Z,235526.00
2023-08-20T09:29:49.848Z,235355.00
2023-08-20T09:35:52.714Z,235266.00
2023-08-20T09:41:54.896Z,235607.00
2023-08-20T09:48:00.311Z,234638.00
2023-08-20T09:54:03.085Z,235445.00
2023-08-20T10:00:11.270Z,234315.00
2023-08-20T10:06:16.149Z,234630.00
2023-08-20T10:12:19.000Z,234606.00
2023-08-20T10:18:21.651Z,234519.00
2023-08-20T10:24:25.290Z,233655.00
2023-08-20T10:30:27.896Z,231729.00
2023-08-20T10:36:30.403Z,233332.00
2023-08-20T10:42:34.077Z,233655.00
2023-08-20T10:48:37.383Z,233721.00
2023-08-20T10:54:39.613Z,233697.00
2023-08-20T11:00:41.868Z,233945.00
2023-08-20T11:06:45.886Z,233663.00
2023-08-20T11:12:48.113Z,234031.00
2023-08-20T11:18:50.088Z,233976.00
2023-08-20T11:24:52.474Z,234033.00
2023-08-20T11:30:54.685Z,233277.00
2023-08-20T11:36:58.110Z,233035.00
2023-08-20T11:43:00.148Z,233100.00
2023-08-20T11:49:09.300Z,232252.00
2023-08-20T11:55:11.524Z,232779.00
2023-08-20T12:01:14.951Z,233100.00
2023-08-20T12:07:17.122Z,232687.00
2023-08-20T12:13:20.931Z,232966.00
2023-08-20T12:19:23.195Z,232829.00
2023-08-20T12:25:25.372Z,233356.00
2023-08-20T12:31:27.695Z,233572.00
2023-08-20T12:37:29.807Z,234115.00
2023-08-20T12:43:31.864Z,234105.00
2023-08-20T12:49:34.126Z,234089.00
2023-08-20T12:55:36.358Z,233500.00
2023-08-20T13:01:39.171Z,233737.00
2023-08-20T13:07:41.424Z,233798.00
2023-08-20T13:13:43.736Z,233976.00
2023-08-20T13:19:45.967Z,231523.00
2023-08-20T13:25:48.044Z,232979.00
2023-08-20T13:31:50.294Z,232294.00
2023-08-20T13:37:52.318Z,231761.00
2023-08-20T13:43:55.024Z,231547.00
2023-08-20T13:49:56.991Z,231190.00
2023-08-20T13:55:59.064Z,230749.00
2023-08-20T14:02:01.267Z,230611.00
2023-08-20T14:08:03.321Z,230593.00
2023-08-20T14:14:05.435Z,230452.00
2023-08-20T14:20:08.848Z,230349.00
2023-08-20T14:26:10.904Z,230224.00
2023-08-20T14:32:13.074Z,230020.00
2023-08-20T14:38:15.260Z,230052.00
2023-08-20T14:44:17.349Z,230044.00
2023-08-20T14:50:19.390Z,230012.00
2023-08-20T14:56:21.358Z,229941.00
2023-08-20T15:02:23.701Z,229858.00
2023-08-20T15:08:26.132Z,229778.00
2023-08-20T15:14:28.187Z,229667.00
2023-08-20T15:20:30.663Z,229614.00
2023-08-20T15:26:35.015Z,229612.00
2023-08-20T15:32:37.412Z,229606.00
2023-08-20T15:38:39.889Z,229575.00
2023-08-20T15:44:42.010Z,229465.00
2023-08-20T15:50:44.094Z,229418.00
2023-08-20T15:56:46.095Z,229311.00
2023-08-20T16:02:48.529Z,229168.00
2023-08-20T16:08:50.745Z,229107.00
2023-08-20T16:14:53.053Z,229024.00
2023-08-20T16:20:55.200Z,229000.00
2023-08-20T16:26:57.370Z,228958.00
2023-08-20T16:32:59.536Z,228843.00
2023-08-20T16:39:01.846Z,228727.00
2023-08-20T16:45:04.181Z,228633.00
2023-08-20T16:51:06.640Z,228519.00
2023-08-20T16:57:09.013Z,228378.00
2023-08-20T17:03:11.090Z,228271.00
2023-08-20T17:09:13.466Z,228186.00
2023-08-20T17:15:15.705Z,228107.00
2023-08-20T17:21:18.436Z,228024.00
2023-08-20T17:27:20.682Z,227994.00
2023-08-20T17:33:22.893Z,227986.00
2023-08-20T17:39:25.477Z,228026.00
2023-08-20T17:45:27.800Z,228034.00
2023-08-20T17:51:34.106Z,228107.00
2023-08-20T17:57:36.566Z,228122.00
2023-08-20T18:03:38.749Z,228154.00
2023-08-20T18:09:40.963Z,228218.00
2023-08-20T18:15:43.217Z,228255.00
2023-08-20T18:21:45.720Z,228255.00
2023-08-20T18:27:47.810Z,228218.00
2023-08-20T18:33:50.057Z,228356.00
2023-08-20T18:39:52.199Z,228551.00
2023-08-20T18:45:54.506Z,228711.00
2023-08-20T18:51:57.066Z,228766.00
2023-08-20T18:57:59.419Z,228865.00
2023-08-20T19:04:01.628Z,228867.00
2023-08-20T19:10:04.026Z,228806.00
2023-08-20T19:16:06.537Z,228806.00
2023-08-20T19:22:08.958Z,228766.00
2023-08-20T19:28:12.472Z,228651.00
2023-08-20T19:34:14.515Z,228635.00
2023-08-20T19:40:16.657Z,228743.00
2023-08-20T19:46:18.773Z,229202.00
2023-08-20T19:52:20.886Z,229325.00
2023-08-20T19:58:22.867Z,229168.00
2023-08-20T20:04:25.685Z,229056.00
2023-08-20T20:10:27.850Z,228976.00
2023-08-20T20:16:29.970Z,228921.00
2023-08-20T20:22:32.279Z,228867.00
2023-08-20T20:28:34.449Z,228827.00
2023-08-20T20:34:36.536Z,228782.00
2023-08-20T20:40:42.530Z,228782.00
2023-08-20T20:46:44.791Z,228782.00
2023-08-20T20:52:46.974Z,228711.00
2023-08-20T20:58:50.635Z,228651.00
2023-08-20T21:04:53.937Z,228543.00
2023-08-20T21:10:55.942Z,228457.00
2023-08-20T21:16:58.018Z,228338.00
2023-08-20T21:23:00.279Z,228322.00
2023-08-20T21:29:02.433Z,228271.00
2023-08-20T21:35:04.820Z,228218.00
2023-08-20T21:41:06.990Z,228370.00
2023-08-20T21:47:35.164Z,228338.00
2023-08-20T21:53:37.726Z,228210.00
2023-08-20T21:59:39.968Z,228114.00
2023-08-20T22:05:42.351Z,228008.00
2023-08-20T22:11:44.545Z,227923.00
2023-08-20T22:17:46.848Z,227823.00
2023-08-20T22:23:49.052Z,227747.00
2023-08-20T22:29:51.506Z,227677.00
2023-08-20T22:35:53.912Z,227645.00
2023-08-20T22:41:56.159Z,227608.00
2023-08-20T22:47:59.813Z,227517.00
2023-08-20T22:54:01.947Z,227479.00
2023-08-20T23:00:09.402Z,227471.00
2023-08-20T23:06:11.581Z,227509.00
2023-08-20T23:12:13.808Z,227570.00
2023-08-20T23:18:16.182Z,227592.00
2023-08-20T23:24:18.451Z,227616.00
2023-08-20T23:30:20.580Z,227616.00
2023-08-20T23:36:22.733Z,227600.00
2023-08-20T23:42:25.254Z,227562.00
2023-08-20T23:48:27.534Z,227530.00
2023-08-20T23:54:29.544Z,227487.00
